createdAt,value
2022-11-26T00:02:01.168Z,15.88
2022-11-26T00:04:30.038Z,11.70
2022-11-26T00:06:59.904Z,15.27
2022-11-26T00:09:28.110Z,23.50
2022-11-26T00:11:56.333Z,13.10
2022-11-26T00:14:24.538Z,16.90
2022-11-26T00:16:54.427Z,18.23
2022-11-26T00:19:22.709Z,17.27
2022-11-26T00:21:50.948Z,16.55
2022-11-26T00:24:28.602Z,18.95
2022-11-26T00:26:58.920Z,16.63
2022-11-26T00:29:27.336Z,13.47
2022-11-26T00:31:56.952Z,17.00
2022-11-26T00:34:25.215Z,22.15
2022-11-26T00:36:53.679Z,19.55
2022-11-26T00:39:25.368Z,13.23
2022-11-26T00:41:54.403Z,16.23
2022-11-26T00:44:25.205Z,21.55
2022-11-26T00:46:53.884Z,19.33
2022-11-26T00:49:24.160Z,21.40
2022-11-26T00:51:52.468Z,22.90
2022-11-26T00:54:21.361Z,13.73
2022-11-26T00:56:50.841Z,20.60
2022-11-26T00:59:21.941Z,20.55
2022-11-26T01:01:50.775Z,28.63
2022-11-26T01:04:19.114Z,18.27
2022-11-26T01:06:48.778Z,15.52
2022-11-26T01:09:20.195Z,11.90
2022-11-26T01:11:53.775Z,13.75
2022-11-26T01:14:24.247Z,14.15
2022-11-26T01:16:54.256Z,19.63
2022-11-26T01:19:22.728Z,18.42
2022-11-26T01:21:53.038Z,17.63
2022-11-26T01:24:21.188Z,18.75
2022-11-26T01:26:49.408Z,16.40
2022-11-26T01:29:19.019Z,20.00
2022-11-26T01:31:47.642Z,20.38
2022-11-26T01:34:16.192Z,13.52
2022-11-26T01:36:44.689Z,22.20
2022-11-26T01:39:17.935Z,21.67
2022-11-26T01:41:50.267Z,17.40
2022-11-26T01:44:20.918Z,19.67
2022-11-26T01:46:50.402Z,20.58
2022-11-26T01:49:22.461Z,19.73
2022-11-26T01:51:56.063Z,21.08
2022-11-26T01:54:26.078Z,22.67
2022-11-26T01:56:57.242Z,18.52
2022-11-26T01:59:29.638Z,15.93
2022-11-26T02:02:00.343Z,19.02
2022-11-26T02:04:31.521Z,18.30
2022-11-26T02:07:00.555Z,20.10
2022-11-26T02:09:31.530Z,18.10
2022-11-26T02:11:59.842Z,14.02
2022-11-26T02:14:31.148Z,17.60
2022-11-26T02:17:18.403Z,16.67
2022-11-26T02:20:27.387Z,17.15
2022-11-26T02:23:18.813Z,19.35
2022-11-26T02:26:16.383Z,16.75
2022-11-26T02:29:01.468Z,17.90
2022-11-26T02:31:36.599Z,15.77
2022-11-26T02:34:14.421Z,18.40
2022-11-26T02:36:50.663Z,14.50
2022-11-26T02:39:21.648Z,16.85
2022-11-26T02:41:52.510Z,16.33
2022-11-26T02:44:25.025Z,15.13
2022-11-26T02:46:59.245Z,16.43
2022-11-26T02:49:29.306Z,15.10
2022-11-26T02:52:01.309Z,16.55
2022-11-26T02:54:33.175Z,15.77
2022-11-26T02:57:04.637Z,16.85
2022-11-26T02:59:33.403Z,16.30
2022-11-26T03:02:10.806Z,14.02
2022-11-26T03:04:43.869Z,16.38
2022-11-26T03:07:14.890Z,14.20
2022-11-26T03:09:51.167Z,14.38
2022-11-26T03:12:19.781Z,15.77
2022-11-26T03:14:48.054Z,11.15
2022-11-26T03:17:18.297Z,11.00
2022-11-26T03:19:47.553Z,10.68
2022-11-26T03:22:16.575Z,12.10
2022-11-26T03:24:44.950Z,9.73
2022-11-26T03:27:13.186Z,15.00
2022-11-26T03:29:41.388Z,15.45
2022-11-26T03:32:09.679Z,16.08
2022-11-26T03:34:39.578Z,14.52
2022-11-26T03:37:08.712Z,16.77
2022-11-26T03:39:36.911Z,16.45
2022-11-26T03:42:05.335Z,19.20
2022-11-26T03:44:33.886Z,13.85
2022-11-26T03:47:02.116Z,16.90
2022-11-26T03:49:30.301Z,13.25
2022-11-26T03:51:59.853Z,16.60
2022-11-26T03:54:28.152Z,15.98
2022-11-26T03:56:56.332Z,13.93
2022-11-26T03:59:24.612Z,12.00
2022-11-26T04:01:52.901Z,13.77
2022-11-26T04:04:21.150Z,13.70
2022-11-26T04:06:49.406Z,15.18
2022-11-26T04:09:19.159Z,17.40
2022-11-26T04:11:48.608Z,16.05
2022-11-26T04:14:16.797Z,13.73
2022-11-26T04:16:45.080Z,8.80
2022-11-26T04:19:13.363Z,8.97
2022-11-26T04:21:41.555Z,12.50
2022-11-26T04:24:09.978Z,10.60
2022-11-26T04:26:39.614Z,11.68
2022-11-26T04:29:07.812Z,8.88
2022-11-26T04:31:36.136Z,12.25
2022-11-26T04:34:04.497Z,10.93
2022-11-26T04:36:32.684Z,13.60
2022-11-26T04:39:00.922Z,11.37
2022-11-26T04:41:29.948Z,11.50
2022-11-26T04:43:59.595Z,9.40
2022-11-26T04:46:27.753Z,12.70
2022-11-26T04:48:56.056Z,9.52
2022-11-26T04:51:24.293Z,11.90
2022-11-26T04:53:55.733Z,9.15
2022-11-26T04:56:24.498Z,7.93
2022-11-26T04:58:52.853Z,6.30
2022-11-26T05:01:22.751Z,9.02
2022-11-26T05:03:51.178Z,9.07
2022-11-26T05:06:19.461Z,10.52
2022-11-26T05:08:47.730Z,10.80
2022-11-26T05:11:15.906Z,10.25
2022-11-26T05:13:44.271Z,12.73
2022-11-26T05:16:12.498Z,10.07
2022-11-26T05:18:42.211Z,7.70
2022-11-26T05:21:10.444Z,11.68
2022-11-26T05:23:38.709Z,7.05
2022-11-26T05:26:07.266Z,12.02
2022-11-26T05:28:35.448Z,8.23
2022-11-26T05:31:04.938Z,11.57
2022-11-26T05:33:33.131Z,9.48
2022-11-26T05:36:02.904Z,10.98
2022-11-26T05:38:31.137Z,15.98
2022-11-26T05:40:59.353Z,12.65
2022-11-26T05:43:27.578Z,9.57
2022-11-26T05:45:55.863Z,7.18
2022-11-26T05:48:24.077Z,9.70
2022-11-26T05:50:58.855Z,10.00
2022-11-26T05:53:28.813Z,11.40
2022-11-26T05:55:57.071Z,9.33
2022-11-26T05:58:25.322Z,12.82
2022-11-26T06:00:53.764Z,10.95
2022-11-26T06:03:22.066Z,16.65
2022-11-26T06:05:50.385Z,10.70
2022-11-26T06:08:18.562Z,11.80
2022-11-26T06:10:48.140Z,12.73
2022-11-26T06:13:16.427Z,11.82
2022-11-26T06:15:44.679Z,11.10
2022-11-26T06:18:12.900Z,9.43
2022-11-26T06:20:41.398Z,10.97
2022-11-26T06:23:09.585Z,11.20
2022-11-26T06:25:37.840Z,10.05
2022-11-26T06:28:07.593Z,9.85
2022-11-26T06:30:35.936Z,10.15
2022-11-26T06:33:04.942Z,11.70
2022-11-26T06:35:33.164Z,12.63
2022-11-26T06:38:01.346Z,14.13
2022-11-26T06:40:29.716Z,12.38
2022-11-26T06:42:57.951Z,12.70
2022-11-26T06:45:27.662Z,15.38
2022-11-26T06:47:55.915Z,14.48
2022-11-26T06:50:24.760Z,13.50
2022-11-26T06:52:53.571Z,19.73
2022-11-26T06:55:22.001Z,10.07
2022-11-26T06:57:51.339Z,11.10
2022-11-26T07:00:20.297Z,14.30
2022-11-26T07:02:50.202Z,11.77
2022-11-26T07:05:18.598Z,13.55
2022-11-26T07:07:46.850Z,14.82
2022-11-26T07:10:15.200Z,15.95
2022-11-26T07:12:43.507Z,11.85
2022-11-26T07:15:13.280Z,15.75
2022-11-26T07:17:41.481Z,12.18
2022-11-26T07:20:12.364Z,10.70
2022-11-26T07:22:40.580Z,12.95
2022-11-26T07:25:12.534Z,13.43
2022-11-26T07:27:42.128Z,15.55
2022-11-26T07:30:11.273Z,17.85
2022-11-26T07:32:39.481Z,22.85
2022-11-26T07:35:08.236Z,25.05
2022-11-26T07:37:37.825Z,21.90
2022-11-26T07:40:07.379Z,27.00
2022-11-26T07:42:35.736Z,29.58
2022-11-26T07:45:04.863Z,26.95
2022-11-26T07:47:33.147Z,21.60
2022-11-26T07:50:01.564Z,26.20
2022-11-26T07:52:29.778Z,18.33
2022-11-26T07:54:59.531Z,17.00
2022-11-26T07:57:27.735Z,18.60
2022-11-26T07:59:55.993Z,19.58
2022-11-26T08:02:24.282Z,19.52
2022-11-26T08:04:52.470Z,19.45
2022-11-26T08:07:26.089Z,20.33
2022-11-26T08:09:57.210Z,19.15
2022-11-26T08:12:27.220Z,18.05
2022-11-26T08:14:55.555Z,17.35
2022-11-26T08:17:23.711Z,15.95
2022-11-26T08:19:51.913Z,18.33
2022-11-26T08:22:20.307Z,21.40
2022-11-26T08:24:48.552Z,17.80
2022-11-26T08:27:17.257Z,18.00
2022-11-26T08:29:46.892Z,19.35
2022-11-26T08:32:15.555Z,17.80
2022-11-26T08:34:43.867Z,18.10
2022-11-26T08:37:12.117Z,17.48
2022-11-26T08:39:40.802Z,21.15
2022-11-26T08:42:08.962Z,16.80
2022-11-26T08:44:37.336Z,13.70
2022-11-26T08:47:07.152Z,20.77
2022-11-26T08:49:35.595Z,19.77
2022-11-26T08:52:05.061Z,17.80
2022-11-26T08:54:33.380Z,20.75
2022-11-26T08:57:01.748Z,22.27
2022-11-26T08:59:29.950Z,20.55
2022-11-26T09:01:58.224Z,17.92
2022-11-26T09:04:27.969Z,19.95
2022-11-26T09:06:56.347Z,23.30
2022-11-26T09:09:24.505Z,25.80
2022-11-26T09:11:55.083Z,17.33
2022-11-26T09:14:25.904Z,25.00
2022-11-26T09:16:54.999Z,19.50
2022-11-26T09:19:23.948Z,25.63
2022-11-26T09:21:53.541Z,20.63
2022-11-26T09:24:26.465Z,19.88
2022-11-26T09:26:55.060Z,24.90
2022-11-26T09:29:24.725Z,27.10
2022-11-26T09:32:23.451Z,19.45
2022-11-26T09:34:41.993Z,18.73
2022-11-26T09:37:11.773Z,28.80
2022-11-26T09:39:39.966Z,17.88
2022-11-26T09:42:09.374Z,25.48
2022-11-26T09:45:00.463Z,24.50
2022-11-26T09:47:34.682Z,22.23
2022-11-26T09:50:17.741Z,19.98
2022-11-26T09:52:54.254Z,17.20
2022-11-26T09:55:26.541Z,66.00
2022-11-26T09:58:03.541Z,67.55
2022-11-26T10:00:34.754Z,24.15
2022-11-26T10:03:03.069Z,18.60
2022-11-26T10:05:42.280Z,18.30
2022-11-26T10:08:30.804Z,15.45
2022-11-26T10:11:04.998Z,20.38
2022-11-26T10:13:43.034Z,23.85
2022-11-26T10:16:21.754Z,15.60
2022-11-26T10:19:04.221Z,13.00
2022-11-26T10:21:58.034Z,17.17
2022-11-26T10:24:31.836Z,15.55
2022-11-26T10:27:03.010Z,15.52
2022-11-26T10:29:38.384Z,20.92
2022-11-26T10:32:15.593Z,17.70
2022-11-26T10:34:50.971Z,15.88
2022-11-26T10:37:20.314Z,11.50
2022-11-26T10:39:55.420Z,18.57
2022-11-26T10:42:26.834Z,17.10
2022-11-26T10:44:55.723Z,11.88
2022-11-26T10:47:29.363Z,11.10
2022-11-26T10:50:39.559Z,14.88
2022-11-26T10:53:06.626Z,14.27
2022-11-26T10:55:40.422Z,17.65
2022-11-26T10:58:17.737Z,17.65
2022-11-26T11:00:55.344Z,13.40
2022-11-26T11:03:59.327Z,14.50
2022-11-26T11:06:28.331Z,14.65
2022-11-26T11:08:58.510Z,11.07
2022-11-26T11:11:30.651Z,12.20
2022-11-26T11:13:59.045Z,13.85
2022-11-26T11:16:30.044Z,16.65
2022-11-26T11:19:00.001Z,13.30
2022-11-26T11:21:34.370Z,12.07
2022-11-26T11:24:17.502Z,9.30
2022-11-26T11:26:48.315Z,12.23
2022-11-26T11:29:34.129Z,8.60
2022-11-26T11:32:05.034Z,16.10
2022-11-26T11:34:35.211Z,11.85
2022-11-26T11:37:05.604Z,13.27
2022-11-26T11:39:35.894Z,11.32
2022-11-26T11:42:08.887Z,15.45
2022-11-26T11:44:40.603Z,10.87
2022-11-26T11:47:35.571Z,10.77
2022-11-26T11:50:19.982Z,13.00
2022-11-26T11:52:57.844Z,8.57
2022-11-26T11:55:37.935Z,8.00
2022-11-26T11:58:27.258Z,11.20
2022-11-26T12:01:02.958Z,10.30
2022-11-26T12:03:52.498Z,14.90
2022-11-26T12:06:31.898Z,12.35
2022-11-26T12:09:08.923Z,8.98
2022-11-26T12:11:48.101Z,14.80
2022-11-26T12:14:23.486Z,15.98
2022-11-26T12:16:58.260Z,15.80
2022-11-26T12:19:35.662Z,9.55
2022-11-26T12:22:11.717Z,17.77
2022-11-26T12:24:45.744Z,10.55
2022-11-26T12:27:25.246Z,13.10
2022-11-26T12:29:59.664Z,12.50
2022-11-26T12:32:35.325Z,15.07
2022-11-26T12:35:08.481Z,16.48
2022-11-26T12:37:41.095Z,9.27
2022-11-26T12:40:20.520Z,9.32
2022-11-26T12:42:57.069Z,8.27
2022-11-26T12:45:46.111Z,13.47
2022-11-26T12:48:25.442Z,11.40
2022-11-26T12:50:57.081Z,8.27
2022-11-26T12:53:35.202Z,10.53
2022-11-26T12:56:12.959Z,8.75
2022-11-26T12:58:48.630Z,12.25
2022-11-26T13:01:18.719Z,14.20
2022-11-26T13:03:47.056Z,8.20
2022-11-26T13:06:27.207Z,11.45
2022-11-26T13:09:03.985Z,15.15
2022-11-26T13:11:41.422Z,19.40
2022-11-26T13:14:18.757Z,9.55
2022-11-26T13:16:55.017Z,10.70
2022-11-26T13:19:32.277Z,7.65
2022-11-26T13:22:28.054Z,12.35
2022-11-26T13:25:09.980Z,10.03
2022-11-26T13:27:50.909Z,16.40
2022-11-26T13:30:22.799Z,19.30
2022-11-26T13:33:25.468Z,14.35
2022-11-26T13:36:24.174Z,12.23
2022-11-26T13:39:05.541Z,19.73
2022-11-26T13:42:00.363Z,8.90
2022-11-26T13:45:13.109Z,20.23
2022-11-26T13:47:44.818Z,18.00
2022-11-26T13:50:18.671Z,17.98
2022-11-26T13:52:52.158Z,14.27
2022-11-26T13:55:24.457Z,11.35
2022-11-26T13:57:56.036Z,15.82
2022-11-26T14:00:29.799Z,15.77
2022-11-26T14:02:59.261Z,12.13
2022-11-26T14:06:08.269Z,13.88
2022-11-26T14:08:38.561Z,8.73
2022-11-26T14:11:07.442Z,9.30
2022-11-26T14:13:35.756Z,11.70
2022-11-26T14:16:06.711Z,15.67
2022-11-26T14:19:00.636Z,12.50
2022-11-26T14:21:31.653Z,14.48
2022-11-26T14:24:02.728Z,12.70
2022-11-26T14:26:34.641Z,10.45
2022-11-26T14:29:13.436Z,14.35
2022-11-26T14:31:49.812Z,16.48
2022-11-26T14:34:23.586Z,14.20
2022-11-26T14:36:59.791Z,12.90
2022-11-26T14:39:29.448Z,10.05
2022-11-26T14:42:05.251Z,13.43
2022-11-26T14:44:34.633Z,13.18
2022-11-26T14:47:11.806Z,13.50
2022-11-26T14:49:42.111Z,11.80
2022-11-26T14:52:20.612Z,11.68
2022-11-26T14:54:52.570Z,11.40
2022-11-26T14:57:25.538Z,12.88
2022-11-26T14:59:58.282Z,15.10
2022-11-26T15:02:28.709Z,16.60
2022-11-26T15:05:02.030Z,18.35
2022-11-26T15:07:33.333Z,17.85
2022-11-26T15:10:03.297Z,10.05
2022-11-26T15:12:32.306Z,12.88
2022-11-26T15:15:02.838Z,11.88
2022-11-26T15:17:33.559Z,12.70
2022-11-26T15:20:05.398Z,15.95
2022-11-26T15:22:38.418Z,13.77
2022-11-26T15:25:13.722Z,10.57
2022-11-26T15:28:00.280Z,16.65
2022-11-26T15:30:30.389Z,15.73
2022-11-26T15:33:00.740Z,17.00
2022-11-26T15:35:30.163Z,18.73
2022-11-26T15:37:59.947Z,69.40
2022-11-26T15:40:32.801Z,60.20
2022-11-26T15:43:04.291Z,54.03
2022-11-26T15:45:39.119Z,35.28
2022-11-26T15:48:27.155Z,26.27
2022-11-26T15:50:58.241Z,29.13
2022-11-26T15:53:30.849Z,43.92
2022-11-26T15:55:59.378Z,52.20
2022-11-26T15:58:30.091Z,25.23
2022-11-26T16:01:01.313Z,17.67
2022-11-26T16:03:43.642Z,14.30
2022-11-26T16:06:31.913Z,15.55
2022-11-26T16:09:08.345Z,16.95
2022-11-26T16:11:38.533Z,13.03
2022-11-26T16:14:34.598Z,18.23
2022-11-26T16:17:08.525Z,22.98
2022-11-26T16:19:38.572Z,14.30
2022-11-26T16:22:07.587Z,15.52
2022-11-26T16:24:40.909Z,15.02
2022-11-26T16:27:26.262Z,11.07
2022-11-26T16:29:54.505Z,13.18
2022-11-26T16:32:22.834Z,10.27
2022-11-26T16:34:51.140Z,10.20
2022-11-26T16:37:22.794Z,15.07
2022-11-26T16:39:54.025Z,13.85
2022-11-26T16:42:23.816Z,17.73
2022-11-26T16:44:52.370Z,12.73
2022-11-26T16:47:27.151Z,9.98
2022-11-26T16:49:55.683Z,7.50
2022-11-26T16:52:24.187Z,7.53
2022-11-26T16:54:53.795Z,10.60
2022-11-26T16:57:24.025Z,7.60
2022-11-26T17:00:02.351Z,9.80
2022-11-26T17:02:32.441Z,10.18
2022-11-26T17:05:00.737Z,14.57
2022-11-26T17:07:32.877Z,11.23
2022-11-26T17:10:04.273Z,11.10
2022-11-26T17:12:32.588Z,7.32
2022-11-26T17:15:00.763Z,15.13
2022-11-26T17:17:30.428Z,20.20
2022-11-26T17:19:58.670Z,15.03
2022-11-26T17:22:27.042Z,16.57
2022-11-26T17:24:55.266Z,11.93
2022-11-26T17:27:24.865Z,13.77
2022-11-26T17:29:53.128Z,7.30
2022-11-26T17:32:21.658Z,12.63
2022-11-26T17:34:49.996Z,12.27
2022-11-26T17:37:26.103Z,6.95
2022-11-26T17:39:54.750Z,10.07
2022-11-26T17:42:24.769Z,10.35
2022-11-26T17:44:54.190Z,10.25
2022-11-26T17:47:25.226Z,11.82
2022-11-26T17:49:54.445Z,12.43
2022-11-26T17:52:22.929Z,6.70
2022-11-26T17:54:51.221Z,9.95
2022-11-26T17:57:20.265Z,10.00
2022-11-26T17:59:49.917Z,9.95
2022-11-26T18:02:18.199Z,8.57
2022-11-26T18:04:46.773Z,7.10
2022-11-26T18:07:17.758Z,10.57
2022-11-26T18:09:46.537Z,9.85
2022-11-26T18:12:25.286Z,10.52
2022-11-26T18:14:56.787Z,9.77
2022-11-26T18:17:25.490Z,10.90
2022-11-26T18:19:53.783Z,8.98
2022-11-26T18:22:23.643Z,6.18
2022-11-26T18:24:56.795Z,14.82
2022-11-26T18:27:27.721Z,8.95
2022-11-26T18:29:57.355Z,6.78
2022-11-26T18:32:25.553Z,10.27
2022-11-26T18:34:54.263Z,12.57
2022-11-26T18:37:22.500Z,8.45
2022-11-26T18:39:50.707Z,12.75
2022-11-26T18:45:11.738Z,9.00
2022-11-26T18:47:40.216Z,7.27
2022-11-26T18:50:09.493Z,9.93
2022-11-26T18:52:37.851Z,11.17
2022-11-26T18:55:08.318Z,7.60
2022-11-26T18:57:36.704Z,11.48
2022-11-26T19:00:06.937Z,9.88
2022-11-26T19:02:37.013Z,10.40
2022-11-26T19:05:06.007Z,12.02
2022-11-26T19:07:34.469Z,8.03
2022-11-26T19:10:04.202Z,7.00
2022-11-26T19:12:32.401Z,8.48
2022-11-26T19:15:00.639Z,7.03
2022-11-26T19:17:30.010Z,7.20
2022-11-26T19:19:59.576Z,7.65
2022-11-26T19:22:27.887Z,8.85
2022-11-26T19:24:56.156Z,11.20
2022-11-26T19:27:24.470Z,15.95
2022-11-26T19:29:53.011Z,7.70
2022-11-26T19:32:21.309Z,10.30
2022-11-26T19:34:49.641Z,7.72
2022-11-26T19:37:19.236Z,9.82
2022-11-26T19:39:48.148Z,12.90
2022-11-26T19:42:16.405Z,11.02
2022-11-26T19:44:44.682Z,13.27
2022-11-26T19:47:12.927Z,18.55
2022-11-26T19:49:41.376Z,12.35
2022-11-26T19:52:09.865Z,13.27
2022-11-26T19:54:39.515Z,14.82
2022-11-26T19:57:08.248Z,10.00
2022-11-26T19:59:36.789Z,7.85
2022-11-26T20:02:05.369Z,7.80
2022-11-26T20:04:33.589Z,9.32
2022-11-26T20:07:03.011Z,11.68
2022-11-26T20:09:31.206Z,11.20
2022-11-26T20:12:00.826Z,12.50
2022-11-26T20:14:31.692Z,10.82
2022-11-26T20:17:01.342Z,10.73
2022-11-26T20:19:29.848Z,6.55
2022-11-26T20:21:58.133Z,11.27
2022-11-26T20:24:26.379Z,9.63
2022-11-26T20:26:54.638Z,6.00
2022-11-26T20:29:25.215Z,6.15
2022-11-26T20:31:54.318Z,9.07
2022-11-26T20:34:23.941Z,6.60
2022-11-26T20:36:52.342Z,10.52
2022-11-26T20:39:22.658Z,13.70
2022-11-26T20:41:51.130Z,10.50
2022-11-26T20:44:19.521Z,5.63
2022-11-26T20:46:49.126Z,9.90
2022-11-26T20:49:17.367Z,9.98
2022-11-26T20:51:45.577Z,7.57
2022-11-26T20:54:13.854Z,7.97
2022-11-26T20:56:42.131Z,8.57
2022-11-26T20:59:10.406Z,10.70
2022-11-26T21:01:39.269Z,8.35
2022-11-26T21:04:08.944Z,9.32
2022-11-26T21:06:37.517Z,9.55
2022-11-26T21:09:07.267Z,6.97
2022-11-26T21:11:36.560Z,8.48
2022-11-26T21:14:07.547Z,6.60
2022-11-26T21:16:38.990Z,8.93
2022-11-26T21:19:11.309Z,6.45
2022-11-26T21:21:39.602Z,8.20
2022-11-26T21:24:08.671Z,7.32
2022-11-26T21:26:37.273Z,12.05
2022-11-26T21:29:05.481Z,9.45
2022-11-26T21:31:33.736Z,9.32
2022-11-26T21:34:03.631Z,8.77
2022-11-26T21:36:35.211Z,9.13
2022-11-26T21:39:04.349Z,9.38
2022-11-26T21:41:33.536Z,15.63
2022-11-26T21:44:04.117Z,9.70
2022-11-26T21:46:37.789Z,8.18
2022-11-26T21:49:06.629Z,10.80
2022-11-26T21:51:36.341Z,6.80
2022-11-26T21:54:04.692Z,10.52
2022-11-26T21:56:33.634Z,14.85
2022-11-26T21:59:02.735Z,7.33
2022-11-26T22:01:33.199Z,8.05
2022-11-26T22:04:03.645Z,7.18
2022-11-26T22:06:32.064Z,9.35
2022-11-26T22:09:01.971Z,4.88
2022-11-26T22:11:32.539Z,7.80
2022-11-26T22:14:00.947Z,10.48
2022-11-26T22:16:30.792Z,8.38
2022-11-26T22:19:00.356Z,8.05
2022-11-26T22:21:30.748Z,8.52
2022-11-26T22:24:02.023Z,8.73
2022-11-26T22:26:31.397Z,7.63
2022-11-26T22:29:00.010Z,7.37
2022-11-26T22:31:31.345Z,8.73
2022-11-26T22:34:01.485Z,7.70
2022-11-26T22:36:29.925Z,7.75
2022-11-26T22:38:58.758Z,11.23
2022-11-26T22:41:28.415Z,6.53
2022-11-26T22:43:56.865Z,9.70
2022-11-26T22:46:25.477Z,9.10
2022-11-26T22:48:55.426Z,8.35
2022-11-26T22:51:24.379Z,7.17
2022-11-26T22:53:53.251Z,8.15
2022-11-26T22:56:22.283Z,9.52
2022-11-26T22:58:52.015Z,8.35
2022-11-26T23:01:22.039Z,5.78
2022-11-26T23:03:50.861Z,9.07
2022-11-26T23:06:21.231Z,8.40
2022-11-26T23:08:50.086Z,7.25
2022-11-26T23:11:21.184Z,5.90
2022-11-26T23:13:52.146Z,12.27
2022-11-26T23:16:22.709Z,6.70
2022-11-26T23:18:51.143Z,10.20
2022-11-26T23:21:21.180Z,10.27
2022-11-26T23:23:50.375Z,10.90
2022-11-26T23:26:26.156Z,6.25
2022-11-26T23:28:56.737Z,10.52
2022-11-26T23:31:27.869Z,11.02
2022-11-26T23:33:56.399Z,8.55
2022-11-26T23:36:25.072Z,8.15
2022-11-26T23:38:53.476Z,6.25
2022-11-26T23:41:21.753Z,12.88
2022-11-26T23:43:50.067Z,8.60
2022-11-26T23:46:21.585Z,6.22
2022-11-26T23:48:50.770Z,6.65
2022-11-26T23:51:20.857Z,11.75
2022-11-26T23:53:50.354Z,11.23
2022-11-26T23:56:22.853Z,6.57
2022-11-26T23:58:51.707Z,6.20
